Extreme weather reports worldwide

Atmospheric pressure

Low pressure

Station
 
Location
 
Name
 
Wind
Knots
Gust
Knots
Vis
SM
Temp/Dew
C
Baro
inHg
METAR
 
NZCM 5 0.62 -21/-29 28.70 NZCM 262112Z AUTO VRB05KT 1000 HZ FEW001 SCT095 M21/M29 A2870 RMK AO2 SNB2102E2112 SLP725 $
TNM SCRM Isla Rey Jorge, AQ Teniente Rodolfo Marsh Martin Base 31 0.5 0/0 29.11 SCRM 262100Z 30031KT 0800 FG OVC003 M00/M00 Q0986 NOSIG
EGS BIEG Egilsstaðir, IS Egilsstaðir Airport 10 6.21 4/1 29.14 BIEG 262100Z 19010KT 9999 FEW025 BKN035 BKN060 04/01 Q0987
RKV BIRK Reykjavik, IS Reykjavik Airport 20 6.21 6/1 29.29 BIRK 262100Z 03020KT 9999 FEW038 OVC063 06/01 Q0992
KEF BIKF Reykjavík, IS Keflavik International Airport 26 40 6.21 5/2 29.29 BIKF 262100Z 03026G40KT 9999 -RA FEW012 OVC021 05/02 Q0992

Station
 
Location
 
Name
 
Wind
Knots
Gust
Knots
Vis
SM
Temp/Dew
C
Baro
inHg
METAR
 
VOVZ 11 1.99 26/26 29.32 VOVZ 262100Z 22011KT 3200 -TSRA SCT008 FEW025CB BKN012 OVC070 26/26 Q0993 TEMPO 2000 -TSRA
AEY BIAR Akureyri, IS Akureyri Airport 15 25 4.97 3/2 29.32 BIAR 262100Z 33015G25KT 8000 -RA FEW013 BKN019 OVC023 03/02 Q0993 RERA
YZP CYZP Sandspit, CA Sandspit Airport 24 31 2.5 12/11 29.34 CYZP 262128Z AUTO 15024G31KT 2 1/2SM -RA BR BKN007 BKN012 OVC110 12/11 A2934 RMK SLP936 DENSITY ALT 300FT
ZMT CZMT Masset, CA Masset Airport 11 21 10 11/10 29.35 CZMT 262100Z 14011G21KT 10SM -SHRA OVC020TCU 11/10 A2935 RMK TCU8 SLP941 DENSITY ALT 200FT
SIT PASI Sitka, US Sitka Rocky Gutierrez Airport 5 10 12/5 29.37 PASI 262053Z 33005KT 10SM FEW080 BKN110 BKN250 13/05 A2937 RMK AO2 SLP946 T01280050 57009
YPR CYPR Prince Rupert, CA Prince Rupert Airport 6 9 12/10 29.42 CYPR 262129Z AUTO 12006KT 9SM OVC060 12/10 A2942 RMK SLP966 DENSITY ALT 400FT
ELV PAEL Elfin Cove, US Elfin Cove Seaplane Base 0 20 9/5 29.42 PAEL 262050Z 00000KT 20SM SCT026 BKN040 BKN060 BKN200 09/05 A2942 RMK SPB E03010KT SEA 0 SWELL 2 SW NOSPECI
PSG PAPG Petersburg, US Petersburg James A Johnson Airport 5 10 8/6 29.43 PAPG 262056Z 07005KT 10SM FEW032 OVC046 08/07 A2943 RMK AO2 RAB23E37 SLP971 P0000 60000 T00830067 56005
FAE EKVG Vagar, FO Vagar Airport 10 6.21 10/10 29.44 EKVG 262120Z AUTO 17010KT 9999 OVC008/// 10/10 Q0997
YDL CYDL Dease Lake, CA Dease Lake Airport 2 9 9/0 29.44 CYDL 262100Z AUTO VRB02KT 9SM CLR 09/M00 A2944 RMK SLP985 DENSITY ALT 3200FT
WRG PAWG Wrangell, US Wrangell Airport 3 9 8/7 29.44 PAWG 262056Z 12003KT 9SM -RA FEW009 BKN033 OVC049 09/07 A2944 RMK AO2 RAB15E32B55 SLP969 P0000 60001 T00890072 56004
PAFE Kake, US Kake Airport 0 10 9/6 29.44 PAFE 262056Z AUTO 00000KT 10SM SCT040 BKN047 09/06 A2944 RMK AO2 SLP982 T00940061 56007 $
JNU PAJN Juneau, US Juneau International Airport 3 10 10/3 29.44 PAJN 262053Z 27003KT 10SM BKN085 BKN250 11/04 A2944 RMK AO2 SLP969 T01060039 56007 $
YYD CYYD Smithers, CA Smithers Airport 9 25 17/9 29.45 CYYD 262100Z 16009KT 120V180 25SM SCT060 BKN120 17/09 A2945 RMK CU3AC3 SLP976 DENSITY ALT 3000FT
HNH PAOH Hoonah, US Hoonah Airport 4 10 11/3 29.45 PAOH 262056Z AUTO 26004KT 10SM OVC075 11/04 A2945 RMK AO2 SLP971 T01110039 58010
AGN PAGN Angoon, US Angoon Seaplane Base 0 10 9/5 29.45 PAGN 262056Z AUTO 00000KT 10SM OVC055 09/05 A2945 RMK AO2 SLP961 T00940050 58007
KTN PAKT Ketchikan, US Ketchikan International Airport 5 10 10/8 29.45 PAKT 262053Z 14005KT 10SM SCT008 BKN022 OVC045 10/08 A2945 RMK HARBOR WND 15007KT
ZST CZST Stewart, CA Stewart Airport 5 12 10/9 29.46 CZST 262105Z 19005KT 12SM -RA FEW007 SCT055 OVC075 10/09 A2946 RMK SC1SC2AS5 SLP976
MTM PAMM Metlakatla, US Metlakatla Seaplane Base 7 10 12/6 29.46 PAMM 262056Z AUTO 14007KT 110V180 10SM BKN030 BKN035 OVC110 12/07 A2946 RMK AO2 SLP968 60000 T01220067 53001 $
GST PAGS Gustavus, US Gustavus Airport 0 10 8/4 29.47 PAGS 262056Z AUTO 00000KT 10SM OVC070 09/04 A2947 RMK AO2 SLP979 T00890044 56005
ZBF CZBF Bathurst, CA Bathurst Airport 0 1.5 18/17 29.48 CZBF 262127Z AUTO 00000KT 1 1/2SM -RA BR BKN006 OVC013 18/17 A2948 RMK SLP984 DENSITY ALT 1100FT
YQM CYQM Moncton, CA Greater Moncton Roméo LeBlanc International Airport 11 21 10 20/20 29.48 CYQM 262105Z 16011G21KT 10SM R06/4500V6000FT/D -RA BKN005 BKN015 BKN045 20/20 A2948 RMK SF5SC1SC1 SLP983 DENSITY ALT 1500FT
YXT CYXT Terrace, CA Northwest Regional Airport Terrace-Kitimat 12 20 13/9 29.48 CYXT 262100Z 16012KT 20SM FEW007 SCT050 BKN120 13/09 A2948 RMK CF1CU3AC3 SLP988 DENSITY ALT 1200FT
YAK PAYA Yakutat, US Yakutat Airport 0 10 12/4 29.49 PAYA 262053Z AUTO 00000KT 10SM CLR 12/04 A2949 RMK AO2 SLP986 T01220044 58007 TSNO
LMO EGQS Lossiemouth, GB RAF Lossiemouth 7 1.86 14/11 29.50 EGQS 262125Z 29007KT 3000 -RADZ BKN020 OVC040 14/11 Q0999 TEMPO SCT005 RMK YLO1 TEMPO YLO1
BEB EGPL Balivanich, GB Benbecula Airport 7 6.21 10/9 29.50 EGPL 262120Z AUTO 15007KT 9999 NCD 10/09 Q0999
FSS EGQK Kinloss, GB RAF Kinloss 13 6.21 13/12 29.50 EGQK 262050Z AUTO 32013KT 9999 RA BKN026/// 13/12 Q0999
ZEL CBBC Bella Bella, CA Bella Bella (Campbell Island) Airport 4 9 15/13 29.50 CBBC 262100Z AUTO 09004KT 050V180 9SM FEW047 OVC081 15/13 A2950 RMK SLP991 DENSITY ALT 700FT
CYCX Gagetown, CA CFB Gagetown Heliport 4 9 17/16 29.51 CYCX 262103Z AUTO 30004KT 9SM 17/16 A2951 RMK SLP995
YZW CYZW Teslin, CA Teslin Airport 6 30 7/-2 29.51 CYZW 262100Z 03006KT 360V090 30SM SCT078 OVC140 07/M02 A2951 RMK AC3AS5 SLP024 DENSITY ALT 2400FT
CYZY Mackenzie, CA Mackenzie Airport 10 9 13/11 29.52 CYZY 262124Z AUTO 14010KT 9SM BKN018 BKN076 BKN100 13/11 A2952 RMK SLP006 DENSITY ALT 3100FT
QBC CYBD Bella Coola, CA Bella Coola Airport 2 15 16/13 29.52 CYBD 262100Z VRB02KT 15SM SCT025 BKN075 16/13 A2952 RMK SC3AC3 SLP998 DENSITY ALT 800FT
SYY EGPO Stornoway, GB Stornoway Airport 12 6.21 11/9 29.53 EGPO 262120Z AUTO 17012KT 9999 NCD 11/09 Q1000
EDI EGPH Edinburgh, GB Edinburgh Airport 9 6.21 16/14 29.53 EGPH 262120Z 18009KT 9999 FEW025 16/14 Q1000
INV EGPE Inverness, GB Inverness Airport 10 0.68 12/11 29.53 EGPE 262120Z AUTO 24010KT 1100 +RA BKN002/// OVC009/// 12/11 Q1000
WIC EGPC Wick, GB Wick Airport 6 6.21 12/12 29.53 EGPC 262120Z AUTO 35006KT 9999 -RA BKN021/// BKN026/// OVC037/// 12/12 Q1000
UWSG 12 6.21 10/9 29.53 UWSG 262100Z 04006MPS 9999 BKN006 OVC023CB 10/09 Q1000 R08/290258 TEMPO 1200 -SHRA BR BKN002 BKN016CB RMK QFE748/0997
TRE EGPU Balemartine, GB Tiree Airport 8 6.21 11/10 29.53 EGPU 262050Z AUTO 18008KT 9999 FEW019/// 11/10 Q1000
YXS CYXS Prince George, CA Prince George Airport 17 24 9 18/8 29.53 CYXS 262100Z AUTO 18017G24KT 9SM CLR 18/08 A2953 RMK SLP009 DENSITY ALT 3600FT
YQZ CYQZ Quesnel, CA Quesnel Airport 12 18 9 20/8 29.53 CYQZ 262100Z AUTO 14012G18KT 100V170 9SM CLR 20/08 A2953 RMK SLP007 DENSITY ALT 3300FT
YDQ CYDQ Dawson Creek, CA Dawson Creek Airport 3 9 16/12 29.53 CYDQ 262100Z AUTO VRB03KT 9SM SCT071 BKN092 16/12 A2953 RMK SLP012 DENSITY ALT 3300FT
YCQ CYCQ Chetwynd, CA Chetwynd Airport 3 8 13/10 29.53 CYCQ 262100Z 35003KT 320V040 8SM FEW012 SCT020TCU BKN050TCU BKN070 OVC200 13/10 A2953 RMK SC1TCU3TCU2AS1CI1 VIRGA ALQDS SLP014 DENSITY ALT 2700FT
HNS PAHN Haines, US Haines Airport 12 10 9/2 29.53 PAHN 262054Z AUTO 30012KT 10SM OVC090 09/03 A2953 RMK AO2 SLP000 T00940028 56005 TSNO
SGY PAGY Skagway, US Skagway Airport 9 10 11/1 29.53 PAGY 262053Z AUTO 02009KT 10SM OVC070 12/01 A2953 RMK AO2 SLP999 T01170011 56005 TSNO
YFC CYFC Fredericton, CA Fredericton Airport 4 9 17/16 29.54 CYFC 262112Z AUTO 36004KT 270V040 9SM SCT060 OVC073 17/16 A2954 RMK SLP004 DENSITY ALT 800FT

High pressure

Station
 
Location
 
Name
 
Wind
Knots
Gust
Knots
Vis
SM
Temp/Dew
C
Baro
inHg
METAR
 
LPB SLLP La Paz / El Alto, BO El Alto International Airport 9 6.21 15/-2 30.62 SLLP 262100Z 07009KT 020V120 9999 SCT023 FEW025CB SCT200 15/M02 Q1037
NSK UOOO Norilsk, RU Norilsk-Alykel Airport 12 6.21 1/-5 30.59 UOOO 262100Z 03006MPS CAVOK 01/M05 Q1036 R01/CLRD60 NOSIG RMK QFE762/1017
K0CO 4 10 11/-6 30.55 K0CO 262115Z AUTO 01004KT 10SM CLR 11/M06 A3055 RMK AO2
KCPW 13 18 10 7/2 30.54 KCPW 262115Z AUTO 24013G18KT 10SM SCT050 SCT060 SCT075 07/02 A3054 RMK AO2 LTG DSNT S
KCCU 7 10 17/-11 30.51 KCCU 262115Z AUTO 31007KT 10SM CLR 17/M11 A3051 RMK AO2

Station
 
Location
 
Name
 
Wind
Knots
Gust
Knots
Vis
SM
Temp/Dew
C
Baro
inHg
METAR
 
HMA USHH Khanty-Mansiysk, RU Khanty Mansiysk Airport 0 6.21 -2/-2 30.50 USHH 262100Z 00000MPS CAVOK M02/M02 Q1033 R06/010060 NOSIG
SGC USRR Surgut, RU Surgut Airport 0 6.21 -1/-2 30.50 USRR 262100Z 00000MPS CAVOK M01/M02 Q1033 R07/CLRD60 NOSIG RMK QFE770
NJC USNN Nizhnevartovsk, RU Nizhnevartovsk Airport 4 6.21 -1/-2 30.47 USNN 262100Z 02002MPS CAVOK M01/M02 Q1032 R03/0///65 NOSIG RMK QFE770
K4BM 4 10 18/-12 30.47 K4BM 262115Z AUTO 19004KT 10SM CLR 18/M12 A3047 RMK AO2 LTG DSNT NW
K5SM 6 10 15/-8 30.46 K5SM 262115Z AUTO 34006KT 10SM CLR 15/M08 A3046 RMK AO2
KC07 0 10 17/-3 30.44 KC07 262115Z AUTO 00000KT 10SM CLR 17/M03 A3044 RMK AO2
KC99 6 10 16/-8 30.43 KC99 262115Z AUTO 32006KT 290V360 10SM CLR 16/M08 A3043 RMK AO2
CUZ SPZO Cusco, PE Alejandro Velasco Astete International Airport 10 6.21 20/-3 30.41 SPZO 262100Z 04010KT 9999 FEW050 20/M03 Q1030 NOSIG RMK BIRD HAZARD RWY 28 PP000
BSF PHSF Camp Pohakuloa, US Bradshaw Army Airfield 19 26 10 23/11 30.41 PHSF 262058Z AUTO 12019G26KT 10SM CLR 24/12 A3041 RMK AO2 PK WND 12029/17 SLPNO T02360117 50004 $
LIMH IT Pian Rosà 12 6.21 -5/-5 30.38 LIMH 262055Z 05012KT CAVOK M05/M05 Q1029 RMK MON LIB VAL NIL VIS MIN 9999
LTX SELT Latacunga, EC Cotopaxi International Airport 7 6.21 15/5 30.38 SELT 262100Z 15007KT 9999 BKN030 15/05 Q1029
KVTP 0 10 16/-4 30.36 KVTP 262115Z AUTO 00000KT 10SM BKN100 16/M04 A3036 RMK AO2
LIBQ 3 6.21 18/3 30.35 LIBQ 262055Z VRB03KT CAVOK 18/03 Q1028 RMK SKC MON LIB VAL NIL VIS MIN 9999
LIRK 7 13/12 30.35 LIRK 262055Z AUTO 31007KT //// 13/12 Q1028
SRE SLAL Yamparaez, BO Alcantarí Airport 18 6.21 20/3 30.35 SLAL 262100Z 03018KT 9999 FEW023 20/03 Q1028
TLC MMTO Toluca, MX Licenciado Adolfo Lopez Mateos International Airport 10 6 16/11 30.34 MMTO 262111Z 29010KT 6SM BKN015CB OVC080 16/11 A3034 RMK 8/96/ HZY TSRAE08 BINOVC
K7BM 4 15 10 20/-7 30.33 K7BM 262115Z AUTO 09004G15KT 10SM CLR 20/M07 A3033 RMK AO2 LTG DSNT SW
MZW DAAY Mecheria, DZ Mecheria Airport 16 4.35 23/11 30.32 DAAY 262100Z 36016KT 7000 SCT030 23/11 Q1027
LXV KLXV Leadville, US Lake County Airport 7 10 20/-10 30.31 KLXV 262053Z AUTO 29007KT 10SM CLR 21/M10 A3031 RMK AO2 SLP103 T02061100 58017
TEX KTEX Telluride, US Telluride Regional Airport 12 10 18/0 30.30 KTEX 262115Z AUTO 28012KT 10SM OVC100 18/00 A3030 RMK AO2 LTG DSNT S AND SW
TID DAOB Tiaret, DZ Bou Chekif Airport 4 6.21 20/13 30.30 DAOB 262100Z 26004KT CAVOK 20/13 Q1026
EBH DAOY El Bayadh, DZ El Bayadh Airport 11 6.21 22/13 30.30 DAOY 262100Z 04011KT 9999 SCT030 22/13 Q1026
CUE SECU Cuenca, EC Mariscal Lamar Airport 9 6.21 17/8 30.30 SECU 262100Z 07009KT 9999 OVC040 17/08 Q1026
BOG SKBO Bogota, CO El Dorado International Airport 10 6.21 18/4 30.30 SKBO 262100Z 13010KT 9999 SCT025 18/04 Q1026 NOSIG RMK A3032
MIM YMER Merimbula, AU Merimbula Airport 4 6.21 7/6 30.30 YMER 262100Z AUTO 21004KT 9999 // OVC053 07/06 Q1026
SYD YSSY Sydney, AU Sydney Kingsford Smith International Airport 5 6.21 12/8 30.30 YSSY 262100Z 31005KT 9999 FEW035 SCT055 12/08 Q1026
NTL YWLM Williamtown, AU Newcastle Airport 0 6.21 11/10 30.30 YWLM 262100Z 00000KT 9999 FEW040 SCT053 11/10 Q1026
EEEI Keila, EE Ämari Air Base 1 2.3 3/3 30.30 EEEI 262106Z AUTO 13001KT 3700 BR VV001 03/03 Q1026
XRH YSRI Richmond, AU RAAF Base Richmond 0 6.21 8/8 30.30 YSRI 262107Z AUTO 00000KT 9999 // SCT001 OVC063 08/08 Q1026
URE EEKE Kuressaare, EE Kuressaare Airport 3 1.24 5/5 30.30 EEKE 262120Z AUTO 03003KT 2400NDV R17/1100VP2000N R35/P2000N BCFG NCD 05/05 Q1026
TLL EETN Tallinn, EE Lennart Meri Tallinn Airport 3 6.21 3/3 30.30 EETN 262120Z VRB03KT 9999 0200E R08/P2000N BCFG SCT001 03/03 Q1026 TEMPO 0700 FG
TAY EETU Tartu, EE Tartu Airport 2 6.21 3/2 30.30 EETU 262120Z AUTO 30002KT 9999 NCD 03/02 Q1026
KEV EFHA Halli / Kuorevesi, FI Halli Airport 3 3.11 4/4 30.30 EFHA 262120Z AUTO 15003KT 5000 NCD 04/04 Q1026
HEL EFHK Helsinki, FI Helsinki Vantaa Airport 2 6.21 3/3 30.30 EFHK 262120Z 32002KT CAVOK 03/03 Q1026 NOSIG
JOE EFJO Joensuu / Liperi, FI Joensuu Airport 2 6.21 2/1 30.30 EFJO 262120Z 01002KT CAVOK 02/01 Q1026
JYV EFJY Jyväskylän Maalaiskunta, FI Jyvaskyla Airport 0 2.73 1/1 30.30 EFJY 262120Z AUTO 00000KT 4400 BR NCD 01/01 Q1026
KUO EFKU Kuopio / Siilinjärvi, FI Kuopio Airport 2 0.56 5/4 30.30 EFKU 262120Z AUTO 14002KT 0900 R15/P2000D FG NSC 05/04 Q1026
LPP EFLP Lappeenranta, FI Lappeenranta Airport 1 1.12 2/2 30.30 EFLP 262120Z AUTO VRB01KT 1800 1100 R24/P2000D BCFG NSC 02/02 Q1026
MIK EFMI Mikkeli, FI Mikkeli Airport 1 6.21 0/0 30.30 EFMI 262120Z AUTO VRB01KT 9999 FEW002 00/00 Q1026
SVL EFSA Savonlinna, FI Savonlinna Airport 2 6.21 1/1 30.30 EFSA 262120Z AUTO VRB02KT CAVOK 01/01 Q1026
TMP EFTP Tampere / Pirkkala, FI Tampere-Pirkkala Airport 1 6.21 3/3 30.30 EFTP 262120Z AUTO VRB01KT CAVOK 03/03 Q1026
TKU EFTU Turku, FI Turku Airport 1 6.21 4/4 30.30 EFTU 262120Z AUTO VRB01KT CAVOK 04/04 Q1026
UTI EFUT Utti / Valkeala, FI Utti Air Base 3 2.11 3/3 30.30 EFUT 262120Z AUTO 32003KT 3400 BR NCD 03/03 Q1026
VNT EVVA Ventspils, LV Ventspils International Airport 0 0.5 4/4 30.30 EVVA 262120Z AUTO 00000KT 0800 FG NSC 04/04 Q1026
SQQ EYSA Å iauliai, LT Å iauliai International Airport 3 6.21 5/5 30.30 EYSA 262120Z 31003KT CAVOK 05/05 Q1026 NOSIG